Terminal Aerodrome Forecast
Issued by NWS Pocatello, ID

Home | Current Version | Previous Version | Text Only | Print | Product List | Glossary On
Versions: 1 2 3 4 5 6 7 8 9 10 11 12 13 14 15
000
FTUS45 KPIH 260700 AAA
TAFIDA
TAF AMD
KIDA 260759Z 2608/2706 23015G25KT P6SM VCSH SCT060 OVC100
     FM261700 24018G28KT P6SM SCT050 BKN090=

USA.gov is the U.S. government's official web portal to all federal, state and local government web resources and services.